Roanoke Rapids, North Carolina
Current Conditions -  °F | °C
As of 2:55 PM on Friday 24 Oct 2014 (Local Time) from KIXA Reporting Station
Clear Clear  
Wind Chill: 20°   Ceiling: Unl
Heat Index: 20°   Visibility: 10mi
Dew Point:   Wind: 5mph
Humidity: 37%   Direction: 360°N
Pressure: 29.95"   Gusts: NA
Location:  36.48°N, 77.65°W
Report Text: KIXA 241855Z AUTO 36004KT 10SM CLR 20/05 A2995 RMK AO2
Loading
Personal Weather Stations






























Interactive Weather Map
Tropical Storm Tracking
New forecast layout! Learn more

10-Day Weather Forecast

Advertisements
Track Severe Weather on mobile